createdAt,value
2022-12-03T00:01:11.040Z,75.44
2022-12-03T00:06:12.943Z,75.38
2022-12-03T00:11:14.742Z,75.35
2022-12-03T00:16:16.701Z,75.27
2022-12-03T00:21:18.642Z,75.42
2022-12-03T00:26:20.493Z,75.54
2022-12-03T00:31:24.508Z,75.53
2022-12-03T00:36:26.477Z,75.52
2022-12-03T00:41:29.147Z,75.46
2022-12-03T00:46:31.095Z,75.51
2022-12-03T00:51:33.061Z,75.53
2022-12-03T00:56:34.905Z,75.60
2022-12-03T01:01:36.847Z,75.74
2022-12-03T01:06:39.040Z,75.72
2022-12-03T01:11:41.530Z,75.81
2022-12-03T01:16:44.119Z,75.77
2022-12-03T01:21:48.961Z,75.77
2022-12-03T01:26:50.760Z,75.98
2022-12-03T01:32:11.455Z,76.00
2022-12-03T01:37:14.038Z,75.97
2022-12-03T01:42:18.405Z,76.08
2022-12-03T01:47:27.112Z,76.00
2022-12-03T01:52:32.856Z,75.97
2022-12-03T01:57:37.713Z,76.00
2022-12-03T02:02:39.489Z,76.02
2022-12-03T02:07:42.464Z,75.95
2022-12-03T02:12:51.045Z,75.92
2022-12-03T02:17:53.523Z,75.83
2022-12-03T02:23:11.399Z,75.89
2022-12-03T02:28:13.358Z,75.93
2022-12-03T02:33:15.161Z,76.13
2022-12-03T02:38:21.096Z,75.98
2022-12-03T02:43:23.900Z,75.90
2022-12-03T02:48:29.963Z,75.83
2022-12-03T02:53:38.312Z,75.90
2022-12-03T02:58:41.976Z,75.86
2022-12-03T03:03:45.904Z,75.90
2022-12-03T03:08:48.793Z,76.06
2022-12-03T03:13:50.713Z,76.07
2022-12-03T03:18:52.744Z,75.98
2022-12-03T03:23:54.600Z,76.04
2022-12-03T03:28:57.593Z,75.96
2022-12-03T03:33:59.613Z,76.03
2022-12-03T03:39:01.936Z,76.14
2022-12-03T03:44:07.336Z,76.03
2022-12-03T03:49:10.604Z,75.96
2022-12-03T03:54:13.028Z,75.87
2022-12-03T03:59:15.518Z,75.82
2022-12-03T04:04:20.927Z,75.85
2022-12-03T04:09:22.801Z,75.97
2022-12-03T04:14:24.825Z,75.98
2022-12-03T04:19:26.663Z,75.95
2022-12-03T04:24:28.555Z,76.03
2022-12-03T04:29:30.408Z,76.05
2022-12-03T04:34:51.745Z,76.22
2022-12-03T04:39:54.354Z,76.29
2022-12-03T04:44:58.496Z,76.30
2022-12-03T04:50:00.286Z,76.29
2022-12-03T04:55:02.140Z,76.23
2022-12-03T05:00:05.644Z,76.22
2022-12-03T05:05:07.949Z,76.17
2022-12-03T05:10:10.946Z,76.22
2022-12-03T05:15:12.719Z,76.26
2022-12-03T05:20:33.491Z,76.27
2022-12-03T05:25:35.360Z,76.37
2022-12-03T05:30:37.312Z,76.65
2022-12-03T05:35:39.265Z,76.83
2022-12-03T05:40:41.279Z,76.82
2022-12-03T05:45:44.395Z,76.66
2022-12-03T05:50:47.036Z,76.55
2022-12-03T05:55:48.911Z,76.68
2022-12-03T06:00:50.809Z,76.61
2022-12-03T06:05:52.673Z,76.69
2022-12-03T06:10:54.482Z,76.62
2022-12-03T06:15:56.338Z,76.57
2022-12-03T06:20:58.194Z,76.74
2022-12-03T06:26:00.024Z,76.63
2022-12-03T06:31:01.868Z,76.52
2022-12-03T06:36:03.883Z,76.49
2022-12-03T06:41:05.848Z,76.42
2022-12-03T06:46:07.680Z,76.26
2022-12-03T06:51:09.615Z,76.23
2022-12-03T06:56:11.466Z,76.32
2022-12-03T07:01:13.313Z,76.35
2022-12-03T07:06:15.445Z,76.47
2022-12-03T07:11:32.520Z,76.64
2022-12-03T07:16:35.833Z,76.90
2022-12-03T07:21:38.332Z,76.71
2022-12-03T07:26:40.327Z,76.66
2022-12-03T07:31:42.189Z,76.83
2022-12-03T07:36:44.136Z,76.73
2022-12-03T07:41:46.008Z,76.90
2022-12-03T07:46:48.096Z,76.90
2022-12-03T07:51:54.475Z,76.87
2022-12-03T07:57:01.194Z,77.08
2022-12-03T08:02:03.887Z,77.06
2022-12-03T08:07:06.315Z,77.02
2022-12-03T08:12:17.082Z,76.93
2022-12-03T08:17:19.913Z,76.86
2022-12-03T08:22:22.450Z,76.96
2022-12-03T08:27:24.293Z,76.97
2022-12-03T08:32:26.343Z,76.75
2022-12-03T08:37:29.856Z,76.80
2022-12-03T08:42:42.832Z,76.77
2022-12-03T08:47:44.761Z,76.70
2022-12-03T08:52:46.605Z,76.61
2022-12-03T08:57:48.526Z,76.45
2022-12-03T09:02:59.572Z,76.19
2022-12-03T09:08:01.498Z,76.23
2022-12-03T09:13:03.444Z,76.00
2022-12-03T09:18:07.633Z,76.25
2022-12-03T09:23:09.472Z,76.15
2022-12-03T09:28:11.292Z,76.26
2022-12-03T09:33:14.174Z,76.46
2022-12-03T09:38:15.987Z,76.72
2022-12-03T09:43:18.645Z,76.91
2022-12-03T09:48:21.637Z,77.07
2022-12-03T09:53:26.799Z,77.43
2022-12-03T09:58:34.501Z,77.47
2022-12-03T10:03:41.183Z,77.43
2022-12-03T10:08:43.218Z,77.28
2022-12-03T10:13:46.250Z,77.13
2022-12-03T10:18:54.495Z,77.30
2022-12-03T10:24:25.842Z,77.66
2022-12-03T10:29:33.955Z,77.59
2022-12-03T10:34:38.998Z,77.29
2022-12-03T10:39:56.262Z,77.38
2022-12-03T10:45:37.075Z,77.24
2022-12-03T10:50:50.666Z,77.43
2022-12-03T10:56:04.732Z,77.77
2022-12-03T11:01:16.073Z,77.46
2022-12-03T11:06:20.568Z,77.29
2022-12-03T11:11:28.077Z,77.21
2022-12-03T11:16:42.155Z,77.21
2022-12-03T11:22:05.980Z,77.36
2022-12-03T11:27:10.840Z,77.43
2022-12-03T11:32:39.478Z,77.22
2022-12-03T11:37:41.378Z,77.00
2022-12-03T11:42:45.019Z,76.75
2022-12-03T11:48:13.853Z,76.41
2022-12-03T11:53:24.800Z,76.00
2022-12-03T11:58:29.860Z,75.49
2022-12-03T12:03:34.398Z,75.37
2022-12-03T12:08:42.163Z,75.37
2022-12-03T12:13:43.933Z,75.26
2022-12-03T12:18:55.020Z,75.19
2022-12-03T12:23:57.264Z,75.43
2022-12-03T12:28:59.042Z,75.65
2022-12-03T12:34:01.668Z,75.81
2022-12-03T12:39:10.719Z,75.71
2022-12-03T12:44:15.360Z,75.81
2022-12-03T12:49:21.598Z,75.77
2022-12-03T12:54:23.881Z,76.11
2022-12-03T12:59:26.065Z,76.49
2022-12-03T13:04:30.721Z,76.74
2022-12-03T13:09:33.109Z,76.71
2022-12-03T13:14:37.254Z,76.62
2022-12-03T13:19:48.311Z,76.66
2022-12-03T13:25:57.825Z,76.88
2022-12-03T13:30:54.300Z,77.32
2022-12-03T13:35:56.628Z,77.58
2022-12-03T13:41:01.574Z,77.95
2022-12-03T13:46:03.496Z,78.31
2022-12-03T13:51:26.315Z,78.37
2022-12-03T13:56:30.918Z,78.65
2022-12-03T14:01:33.022Z,78.40
2022-12-03T14:06:34.879Z,78.27
2022-12-03T14:11:55.596Z,78.34
2022-12-03T14:17:00.097Z,78.20
2022-12-03T14:22:03.094Z,78.17
2022-12-03T14:27:04.927Z,78.25
2022-12-03T14:32:06.826Z,78.56
2022-12-03T14:37:08.718Z,78.83
2022-12-03T14:42:13.403Z,79.36
2022-12-03T14:47:18.570Z,79.57
2022-12-03T14:52:20.526Z,79.78
2022-12-03T14:57:22.349Z,80.05
2022-12-03T15:02:24.334Z,80.47
2022-12-03T15:07:26.388Z,80.64
2022-12-03T15:12:28.295Z,80.60
2022-12-03T15:17:32.156Z,80.30
2022-12-03T15:22:34.267Z,80.27
2022-12-03T15:27:36.101Z,80.56
2022-12-03T15:32:37.974Z,80.85
2022-12-03T15:37:40.564Z,81.06
2022-12-03T15:42:43.787Z,80.83
2022-12-03T15:47:46.069Z,81.06
2022-12-03T15:52:47.999Z,80.89
2022-12-03T15:57:50.481Z,81.12
2022-12-03T16:02:53.046Z,80.91
2022-12-03T16:07:55.347Z,81.00
2022-12-03T16:12:57.231Z,80.83
2022-12-03T16:17:59.082Z,80.95
2022-12-03T16:23:00.870Z,81.07
2022-12-03T16:28:02.754Z,81.10
2022-12-03T16:33:04.904Z,81.06
2022-12-03T16:38:06.747Z,81.03
2022-12-03T16:43:10.651Z,80.91
2022-12-03T16:48:12.450Z,81.13
2022-12-03T16:53:16.407Z,81.25
2022-12-03T16:58:21.573Z,81.14
2022-12-03T17:03:24.313Z,81.14
2022-12-03T17:08:28.553Z,81.25
2022-12-03T17:13:30.345Z,81.06
2022-12-03T17:18:32.163Z,80.95
2022-12-03T17:23:33.925Z,80.89
2022-12-03T17:28:35.796Z,81.20
2022-12-03T17:33:37.685Z,81.29
2022-12-03T17:38:41.040Z,81.16
2022-12-03T17:43:42.854Z,81.22
2022-12-03T17:48:44.754Z,81.41
2022-12-03T17:53:46.823Z,81.54
2022-12-03T17:58:48.631Z,81.16
2022-12-03T18:03:50.446Z,81.07
2022-12-03T18:08:52.393Z,80.90
2022-12-03T18:13:54.212Z,81.05
2022-12-03T18:18:57.610Z,81.39
2022-12-03T18:24:02.389Z,81.71
2022-12-03T18:29:04.267Z,81.46
2022-12-03T18:34:06.084Z,81.43
2022-12-03T18:39:18.332Z,81.20
2022-12-03T18:44:20.699Z,81.29
2022-12-03T18:49:22.561Z,81.06
2022-12-03T18:54:24.394Z,81.11
2022-12-03T18:59:26.209Z,81.25
2022-12-03T19:04:28.190Z,81.11
2022-12-03T19:09:30.056Z,81.11
2022-12-03T19:14:33.221Z,81.17
2022-12-03T19:19:36.318Z,80.93
2022-12-03T19:24:38.171Z,80.74
2022-12-03T19:29:40.073Z,80.55
2022-12-03T19:34:41.882Z,80.31
2022-12-03T19:39:43.726Z,80.21
2022-12-03T19:44:45.497Z,80.29
2022-12-03T19:49:47.277Z,80.49
2022-12-03T19:54:49.233Z,80.51
2022-12-03T19:59:51.031Z,80.56
2022-12-03T20:04:52.840Z,80.61
2022-12-03T20:09:54.866Z,80.70
2022-12-03T20:14:57.006Z,80.74
2022-12-03T20:19:58.854Z,80.91
2022-12-03T20:25:00.745Z,80.80
2022-12-03T20:30:02.686Z,80.73
2022-12-03T20:35:04.945Z,80.67
2022-12-03T20:40:07.632Z,80.53
2022-12-03T20:45:10.315Z,80.61
2022-12-03T20:50:12.301Z,80.72
2022-12-03T20:55:14.210Z,80.57
2022-12-03T21:00:16.942Z,80.80
2022-12-03T21:05:18.886Z,81.04
2022-12-03T21:10:36.052Z,81.03
2022-12-03T21:15:37.884Z,81.20
2022-12-03T21:20:44.933Z,81.53
2022-12-03T21:25:46.767Z,81.44
2022-12-03T21:30:48.694Z,81.29
2022-12-03T21:35:50.711Z,81.25
2022-12-03T21:40:52.946Z,81.38
2022-12-03T21:45:55.679Z,81.67
2022-12-03T21:51:17.295Z,82.14
2022-12-03T21:56:19.591Z,82.33
2022-12-03T22:01:24.087Z,82.31
2022-12-03T22:06:26.417Z,82.37
2022-12-03T22:11:28.263Z,82.07
2022-12-03T22:16:30.502Z,82.17
2022-12-03T22:21:32.561Z,82.21
2022-12-03T22:26:35.326Z,82.24
2022-12-03T22:31:38.458Z,82.36
2022-12-03T22:36:40.392Z,82.37
2022-12-03T22:41:42.242Z,82.30
2022-12-03T22:46:44.194Z,82.55
2022-12-03T22:51:47.471Z,82.47
2022-12-03T22:56:49.367Z,82.62
2022-12-03T23:01:51.188Z,82.76
2022-12-03T23:06:53.082Z,82.44
2022-12-03T23:11:55.202Z,82.44
2022-12-03T23:16:56.994Z,82.40
2022-12-03T23:21:58.823Z,82.24
2022-12-03T23:27:00.688Z,82.12
2022-12-03T23:32:02.584Z,82.02
2022-12-03T23:37:04.348Z,81.95
2022-12-03T23:42:06.165Z,81.89
2022-12-03T23:47:07.947Z,81.59
2022-12-03T23:52:09.811Z,81.45
2022-12-03T23:57:12.775Z,81.43
